Time;durP1;ratioP1;P1;durP2;ratioP2;P2;SDS_P1;SDS_P2;PMS_P1;PMS_P2;Temp;Humidity;BMP_temperature;BMP_pressure;BME280_temperature;BME280_humidity;BME280_pressure;Samples;Min_cycle;Max_cycle;Signal;HPM_P1;HPM_P2
2022/05/20 00:00:16;;;;;;;24.58;20.73;;;17.70;99.90;;;;;;5072859;28;20212;-81
2022/05/20 00:02:42;;;;;;;23.10;20.77;;;17.70;99.90;;;;;;5082265;28;20234;-79
2022/05/20 00:05:09;;;;;;;21.05;18.92;;;17.60;99.90;;;;;;5079357;28;20219;-78
2022/05/20 00:07:39;;;;;;;22.33;19.95;;;17.60;99.90;;;;;;5074092;28;20222;-78
2022/05/20 00:10:09;;;;;;;22.02;19.77;;;17.50;99.90;;;;;;5069517;28;20726;-77
2022/05/20 00:12:36;;;;;;;22.00;19.73;;;17.40;99.90;;;;;;5060992;28;20219;-77
2022/05/20 00:15:04;;;;;;;24.45;19.58;;;17.30;99.90;;;;;;5070180;28;20225;-77
2022/05/20 00:17:31;;;;;;;23.05;18.85;;;17.20;99.90;;;;;;5078518;28;20215;-79
2022/05/20 00:19:58;;;;;;;21.23;18.95;;;17.10;99.90;;;;;;5084671;28;20226;-79
2022/05/20 00:22:24;;;;;;;23.30;20.25;;;17.00;99.90;;;;;;5063968;28;20234;-80
2022/05/20 00:27:48;;;;;;;23.73;21.23;;;16.80;99.90;;;;;;5046563;28;20751;-80
2022/05/20 00:30:15;;;;;;;23.97;21.47;;;16.70;99.90;;;;;;5067836;28;20300;-82
2022/05/20 00:32:41;;;;;;;23.93;21.43;;;16.60;99.90;;;;;;5079583;28;20227;-81
2022/05/20 00:35:09;;;;;;;28.23;22.93;;;16.60;99.90;;;;;;5071431;27;20926;-81
2022/05/20 00:37:38;;;;;;;24.42;21.85;;;16.50;99.90;;;;;;5081593;28;20219;-81
2022/05/20 00:40:06;;;;;;;23.60;21.13;;;16.50;99.90;;;;;;5081371;28;20227;-81
2022/05/20 00:42:34;;;;;;;22.83;20.43;;;16.50;99.90;;;;;;5077117;28;20234;-80
2022/05/20 00:45:02;;;;;;;24.93;22.10;;;16.40;99.90;;;;;;5073550;28;20310;-81
2022/05/20 00:47:29;;;;;;;23.10;20.73;;;16.40;99.90;;;;;;5079170;27;20219;-81
2022/05/20 00:49:59;;;;;;;23.88;21.13;;;16.40;99.90;;;;;;5062796;28;20247;-79
2022/05/20 00:52:29;;;;;;;23.50;21.00;;;16.40;99.90;;;;;;5080353;28;21139;-80
2022/05/20 00:54:59;;;;;;;24.03;21.43;;;16.40;99.90;;;;;;5092545;28;20958;-80
2022/05/20 00:57:31;;;;;;;24.03;21.27;;;16.40;99.90;;;;;;5076515;28;20272;-81
2022/05/20 01:00:05;;;;;;;25.73;22.63;;;16.40;99.90;;;;;;5078786;28;20268;-79
2022/05/20 01:02:34;;;;;;;25.73;21.03;;;16.40;99.90;;;;;;5078114;28;20246;-78
2022/05/20 01:05:03;;;;;;;31.53;22.83;;;16.40;99.90;;;;;;5071617;27;20220;-80
2022/05/20 01:07:31;;;;;;;23.70;20.98;;;16.40;99.90;;;;;;5063376;28;20254;-79
2022/05/20 01:09:58;;;;;;;24.70;21.70;;;16.40;99.90;;;;;;5064498;28;20314;-79
2022/05/20 01:12:26;;;;;;;25.33;22.63;;;16.40;99.90;;;;;;5080864;28;20234;-79
2022/05/20 01:14:54;;;;;;;26.30;22.07;;;16.30;99.90;;;;;;5079157;28;20294;-81
2022/05/20 01:17:22;;;;;;;24.57;21.60;;;16.30;99.90;;;;;;5078064;28;20225;-81
2022/05/20 01:19:53;;;;;;;28.47;22.97;;;16.30;99.90;;;;;;5082456;28;20218;-79
2022/05/20 01:22:28;;;;;;;25.77;23.10;;;16.30;99.90;;;;;;5080502;28;20224;-79
2022/05/20 01:24:56;;;;;;;23.07;20.13;;;16.30;99.90;;;;;;5069749;28;20224;-80
2022/05/20 01:27:23;;;;;;;27.60;23.33;;;16.20;99.90;;;;;;5063476;28;20219;-79
2022/05/20 01:29:50;;;;;;;26.23;21.73;;;16.20;99.90;;;;;;5076819;28;20290;-79
2022/05/20 01:32:16;;;;;;;28.63;22.73;;;16.20;99.90;;;;;;5078806;28;20596;-78
2022/05/20 01:34:43;;;;;;;29.27;22.67;;;16.10;99.90;;;;;;5085273;28;20738;-78
2022/05/20 01:37:10;;;;;;;27.77;23.23;;;16.00;99.90;;;;;;5081156;28;20750;-78
2022/05/20 01:39:37;;;;;;;32.97;25.10;;;15.90;99.90;;;;;;5062335;28;20225;-78
2022/05/20 01:42:12;;;;;;;31.37;24.57;;;15.80;99.90;;;;;;5053948;28;20238;-80
2022/05/20 01:44:44;;;;;;;28.03;23.13;;;15.70;99.90;;;;;;5078320;28;20236;-80
2022/05/20 01:47:16;;;;;;;29.23;21.83;;;15.60;99.90;;;;;;5085497;28;20254;-80
2022/05/20 01:49:49;;;;;;;26.53;22.23;;;15.50;99.90;;;;;;5082190;28;20237;-80
2022/05/20 01:52:24;;;;;;;26.33;22.27;;;15.50;99.90;;;;;;5087180;28;20314;-80
2022/05/20 01:55:00;;;;;;;27.20;21.70;;;15.40;99.90;;;;;;5095354;28;20348;-80
2022/05/20 01:57:32;;;;;;;28.30;22.83;;;15.30;99.90;;;;;;5086770;28;20234;-81
2022/05/20 02:00:05;;;;;;;25.43;21.83;;;15.20;99.90;;;;;;5078847;28;21840;-80
2022/05/20 02:02:39;;;;;;;27.33;21.73;;;15.20;99.90;;;;;;5065663;28;20257;-78
2022/05/20 02:05:09;;;;;;;29.23;22.43;;;15.10;99.90;;;;;;5061501;28;20231;-80
2022/05/20 02:07:39;;;;;;;30.10;23.17;;;15.00;99.90;;;;;;5063177;28;20714;-79
2022/05/20 02:10:12;;;;;;;30.27;22.90;;;15.00;99.90;;;;;;5060222;28;20227;-79
2022/05/20 02:12:46;;;;;;;28.47;23.77;;;14.90;99.90;;;;;;5061692;28;20330;-80
2022/05/20 02:15:17;;;;;;;27.53;22.33;;;14.80;99.90;;;;;;5061401;28;20222;-80
2022/05/20 02:17:49;;;;;;;25.63;20.60;;;14.80;99.90;;;;;;5062819;28;20227;-79
2022/05/20 02:20:21;;;;;;;27.53;20.47;;;14.70;99.90;;;;;;5063063;28;20351;-79
2022/05/20 02:22:51;;;;;;;25.27;20.67;;;14.70;99.90;;;;;;5064500;28;20765;-79
2022/05/20 02:25:22;;;;;;;21.00;17.87;;;14.60;99.90;;;;;;5060480;28;20265;-80
2022/05/20 02:27:58;;;;;;;23.27;17.93;;;14.60;99.90;;;;;;5059737;28;20779;-79
2022/05/20 02:30:31;;;;;;;23.13;18.43;;;14.60;99.90;;;;;;5056529;28;20538;-80
2022/05/20 02:33:01;;;;;;;24.60;18.63;;;14.50;99.90;;;;;;5069460;28;20328;-79
2022/05/20 02:35:28;;;;;;;26.80;19.30;;;14.50;99.90;;;;;;5060715;28;20297;-80
2022/05/20 02:37:55;;;;;;;25.73;18.70;;;14.50;99.90;;;;;;5057608;28;20335;-80
2022/05/20 02:40:22;;;;;;;27.33;19.43;;;14.40;99.90;;;;;;5059525;28;20236;-78
2022/05/20 02:42:50;;;;;;;17.93;15.43;;;14.40;99.90;;;;;;5060877;28;20332;-79
2022/05/20 02:45:18;;;;;;;16.70;13.67;;;14.40;99.90;;;;;;5058176;28;20211;-80
2022/05/20 02:47:45;;;;;;;15.93;12.83;;;14.30;99.90;;;;;;5060300;28;20313;-80
2022/05/20 02:50:13;;;;;;;15.23;12.47;;;14.30;99.90;;;;;;5061216;28;20237;-78
2022/05/20 02:52:40;;;;;;;17.27;12.20;;;14.20;99.90;;;;;;5053324;28;20237;-79
2022/05/20 02:55:08;;;;;;;15.30;10.83;;;14.10;99.90;;;;;;5059697;28;20238;-79
2022/05/20 02:57:36;;;;;;;12.53;9.97;;;14.10;99.90;;;;;;5076378;28;20227;-78
2022/05/20 03:05:36;;;;;;;13.80;10.27;;;13.90;99.90;;;;;;5081648;28;20338;-79
2022/05/20 03:08:04;;;;;;;11.67;9.70;;;13.80;99.90;;;;;;5084703;28;20252;-79
2022/05/20 03:10:30;;;;;;;13.10;11.13;;;13.80;99.90;;;;;;5057582;28;20261;-79
2022/05/20 03:13:00;;;;;;;14.80;10.20;;;13.80;99.90;;;;;;5071387;28;20332;-78
2022/05/20 03:15:28;;;;;;;13.47;10.57;;;13.70;99.90;;;;;;5063808;28;20229;-79
2022/05/20 03:17:54;;;;;;;11.47;8.77;;;13.60;99.90;;;;;;5075685;28;20233;-76
2022/05/20 03:20:21;;;;;;;11.67;9.80;;;13.60;99.90;;;;;;5075835;28;20230;-79
2022/05/20 03:22:48;;;;;;;13.97;10.60;;;13.60;99.90;;;;;;5068646;28;20257;-78
2022/05/20 03:25:15;;;;;;;15.00;9.80;;;13.60;99.90;;;;;;5083627;28;20223;-79
2022/05/20 03:27:42;;;;;;;12.10;8.23;;;13.60;99.90;;;;;;5073878;28;20799;-79
2022/05/20 03:30:11;;;;;;;9.47;6.90;;;13.50;99.90;;;;;;5062841;28;20226;-79
2022/05/20 03:32:40;;;;;;;11.10;7.40;;;13.50;99.90;;;;;;5062934;28;20244;-79
2022/05/20 03:35:08;;;;;;;12.27;7.10;;;13.40;99.90;;;;;;5055761;28;20230;-79
2022/05/20 03:37:35;;;;;;;8.87;6.53;;;13.40;99.90;;;;;;5063872;28;20406;-79
2022/05/20 03:40:03;;;;;;;7.93;7.03;;;13.40;99.90;;;;;;5061573;28;20231;-79
2022/05/20 03:42:30;;;;;;;9.23;7.43;;;13.20;99.90;;;;;;5059939;28;20236;-79
2022/05/20 03:44:56;;;;;;;10.50;7.07;;;13.30;99.90;;;;;;5057639;28;20816;-80
2022/05/20 03:47:23;;;;;;;10.77;7.37;;;13.30;99.90;;;;;;5056876;28;20239;-79
2022/05/20 03:49:52;;;;;;;10.57;7.23;;;13.30;99.90;;;;;;5061500;28;20959;-79
2022/05/20 03:52:19;;;;;;;10.30;7.53;;;13.30;99.90;;;;;;5061014;28;20276;-78
2022/05/20 03:54:46;;;;;;;9.50;6.50;;;13.30;99.90;;;;;;5059944;28;20237;-78
2022/05/20 03:57:13;;;;;;;9.87;6.73;;;13.30;99.90;;;;;;5061363;28;20217;-79
2022/05/20 03:59:39;;;;;;;9.27;6.30;;;13.30;99.90;;;;;;5063165;28;20275;-79
2022/05/20 04:02:08;;;;;;;8.10;6.33;;;13.20;99.90;;;;;;5057460;28;20232;-79
2022/05/20 04:04:37;;;;;;;7.63;6.77;;;13.20;99.90;;;;;;5061171;28;20222;-79
2022/05/20 04:07:07;;;;;;;8.70;6.60;;;13.20;99.90;;;;;;5059266;28;20615;-78
2022/05/20 04:09:34;;;;;;;8.17;6.23;;;13.20;99.90;;;;;;5082346;28;20261;-79
2022/05/20 04:12:04;;;;;;;11.43;6.60;;;13.20;99.90;;;;;;5077552;28;20226;-79
2022/05/20 04:14:31;;;;;;;7.03;5.67;;;13.30;99.90;;;;;;5055380;28;20234;-78
2022/05/20 04:16:58;;;;;;;6.60;4.97;;;13.30;99.90;;;;;;5055883;28;20236;-78
2022/05/20 04:19:26;;;;;;;9.83;5.70;;;13.30;99.90;;;;;;5062911;28;20235;-78
2022/05/20 04:21:54;;;;;;;7.03;5.27;;;13.30;99.90;;;;;;5054853;28;20238;-78
2022/05/20 04:24:22;;;;;;;8.20;5.30;;;13.40;99.90;;;;;;5054981;28;20306;-80
2022/05/20 04:26:49;;;;;;;8.37;5.40;;;13.40;99.90;;;;;;5057198;28;20227;-78
2022/05/20 04:29:16;;;;;;;6.53;4.73;;;13.40;99.90;;;;;;5054134;28;20218;-78
2022/05/20 04:31:46;;;;;;;9.73;5.00;;;13.50;99.90;;;;;;5054091;28;20423;-79
2022/05/20 04:34:13;;;;;;;7.73;5.27;;;13.50;99.90;;;;;;5056485;28;20335;-78
2022/05/20 04:36:40;;;;;;;7.17;5.20;;;13.50;99.90;;;;;;5052290;28;20229;-78
2022/05/20 04:39:08;;;;;;;7.67;5.07;;;13.50;99.90;;;;;;5055901;28;20762;-78
2022/05/20 04:47:08;;;;;;;7.30;4.73;;;13.50;99.90;;;;;;5068646;28;20219;-78
2022/05/20 04:49:39;;;;;;;7.30;5.40;;;13.60;99.90;;;;;;5059731;28;20235;-78
2022/05/20 04:52:07;;;;;;;7.43;4.60;;;13.60;99.90;;;;;;5054308;28;20315;-78
2022/05/20 04:54:52;;;;;;;6.80;4.20;;;13.60;99.90;;;;;;5055426;28;20228;-78
2022/05/20 04:57:23;;;;;;;7.33;4.47;;;13.60;99.90;;;;;;5057845;28;20780;-78
2022/05/20 04:59:51;;;;;;;10.37;5.27;;;13.60;99.90;;;;;;5057213;28;20231;-78
2022/05/20 05:02:17;;;;;;;7.50;4.90;;;13.60;99.90;;;;;;5056358;28;20320;-78
2022/05/20 05:04:45;;;;;;;8.20;5.13;;;13.60;99.90;;;;;;5058252;28;20306;-78
2022/05/20 05:07:11;;;;;;;7.47;4.80;;;13.70;99.90;;;;;;5056589;28;20226;-78
2022/05/20 05:09:39;;;;;;;7.83;4.57;;;13.70;99.90;;;;;;5056005;28;20222;-78
2022/05/20 05:12:07;;;;;;;7.40;4.50;;;13.80;99.90;;;;;;5047461;28;20245;-78
2022/05/20 05:14:38;;;;;;;7.83;4.70;;;13.80;99.90;;;;;;5048886;28;20346;-78
2022/05/20 05:17:06;;;;;;;8.10;3.93;;;13.80;99.90;;;;;;5050856;28;20324;-78
2022/05/20 05:19:36;;;;;;;7.70;3.77;;;13.90;99.90;;;;;;5075278;28;20752;-78
2022/05/20 05:22:03;;;;;;;9.50;4.17;;;14.00;99.90;;;;;;5070497;28;20238;-78
2022/05/20 05:24:30;;;;;;;7.80;4.20;;;14.00;99.90;;;;;;5069760;28;20371;-78
2022/05/20 05:26:56;;;;;;;8.17;3.97;;;14.10;99.90;;;;;;5055843;28;21060;-78
2022/05/20 05:29:23;;;;;;;7.53;3.83;;;14.10;99.90;;;;;;5056992;28;20251;-78
2022/05/20 05:31:51;;;;;;;8.60;4.63;;;14.20;99.90;;;;;;5070473;27;20222;-78
2022/05/20 05:34:18;;;;;;;4.87;4.00;;;14.20;99.90;;;;;;5065398;28;20223;-78
2022/05/20 05:36:45;;;;;;;5.47;3.53;;;14.30;99.90;;;;;;5051974;28;20734;-78
2022/05/20 05:39:12;;;;;;;6.20;3.47;;;14.40;99.90;;;;;;5076141;28;20228;-78
2022/05/20 05:41:39;;;;;;;7.53;3.10;;;14.50;99.90;;;;;;5074791;28;20241;-79
2022/05/20 05:44:06;;;;;;;5.47;3.23;;;14.60;99.90;;;;;;5060863;28;20340;-79
2022/05/20 05:46:33;;;;;;;5.10;2.87;;;14.70;99.90;;;;;;5058603;28;20726;-78
2022/05/20 05:49:01;;;;;;;7.47;3.00;;;14.80;99.90;;;;;;5057296;28;20265;-78
2022/05/20 05:51:29;;;;;;;6.23;3.10;;;14.80;99.90;;;;;;5052857;28;20642;-79
2022/05/20 05:53:56;;;;;;;9.60;3.40;;;14.80;99.90;;;;;;5054698;28;20723;-79
2022/05/20 05:56:23;;;;;;;7.20;3.07;;;14.80;99.90;;;;;;5066822;28;20220;-78
2022/05/20 05:58:50;;;;;;;7.13;3.77;;;14.80;99.90;;;;;;5078764;28;20917;-78
2022/05/20 06:01:17;;;;;;;5.50;2.80;;;14.80;99.90;;;;;;5079209;28;20227;-78
2022/05/20 06:03:44;;;;;;;5.00;3.17;;;14.80;99.90;;;;;;5082296;28;20226;-79
2022/05/20 06:06:12;;;;;;;4.77;3.50;;;14.80;99.90;;;;;;5083504;28;20279;-80
2022/05/20 06:08:39;;;;;;;6.03;3.60;;;14.80;99.90;;;;;;5088196;28;20271;-78
2022/05/20 06:11:07;;;;;;;4.97;2.90;;;14.80;99.90;;;;;;5074124;28;20248;-79
2022/05/20 06:13:34;;;;;;;5.87;2.90;;;14.80;99.90;;;;;;5082031;28;20646;-79
2022/05/20 06:16:00;;;;;;;8.50;3.00;;;14.90;99.90;;;;;;5079232;28;20323;-79
2022/05/20 06:18:28;;;;;;;6.27;2.57;;;14.90;99.90;;;;;;5081960;27;20227;-79
2022/05/20 06:20:56;;;;;;;5.87;3.33;;;15.00;99.90;;;;;;5072923;28;20224;-79
2022/05/20 06:23:24;;;;;;;5.60;2.87;;;15.00;99.90;;;;;;5077944;28;20245;-79
2022/05/20 06:25:51;;;;;;;6.53;2.70;;;15.10;99.90;;;;;;5082260;28;20229;-78
2022/05/20 06:28:19;;;;;;;6.60;2.80;;;15.20;99.90;;;;;;5079535;28;20224;-79
2022/05/20 06:30:47;;;;;;;6.67;2.43;;;15.20;99.90;;;;;;5081351;28;20225;-79
2022/05/20 06:33:14;;;;;;;6.43;2.63;;;15.20;99.90;;;;;;5081658;28;20225;-79
2022/05/20 06:41:11;;;;;;;4.00;2.00;;;15.50;99.90;;;;;;5081701;28;20701;-79
2022/05/20 06:43:38;;;;;;;2.90;1.90;;;15.50;99.90;;;;;;5082258;28;20217;-79
2022/05/20 06:46:05;;;;;;;3.13;1.73;;;15.50;99.90;;;;;;5077403;28;20231;-79
2022/05/20 06:48:41;;;;;;;2.97;1.60;;;15.60;99.90;;;;;;5083779;28;20225;-79
2022/05/20 06:51:09;;;;;;;5.40;1.87;;;15.60;99.90;;;;;;5075578;28;20719;-78
2022/05/20 06:53:38;;;;;;;6.20;2.20;;;15.70;99.90;;;;;;5075352;28;20536;-79
2022/05/20 06:56:05;;;;;;;7.27;2.60;;;15.80;99.90;;;;;;5080556;28;20236;-79
2022/05/20 06:58:32;;;;;;;9.17;2.73;;;15.90;99.90;;;;;;5077105;28;20294;-79
2022/05/20 07:00:59;;;;;;;5.47;2.07;;;16.00;99.90;;;;;;5072910;28;20710;-79
2022/05/20 07:03:26;;;;;;;6.87;2.77;;;16.00;99.90;;;;;;5061588;28;20235;-79
2022/05/20 07:05:53;;;;;;;6.83;2.23;;;16.00;99.60;;;;;;5058966;28;20907;-79
2022/05/20 07:08:20;;;;;;;3.03;1.70;;;16.00;99.60;;;;;;5057244;28;20219;-79
2022/05/20 07:10:48;;;;;;;6.43;2.13;;;16.10;99.70;;;;;;5057841;28;20888;-79
2022/05/20 07:13:15;;;;;;;4.47;1.50;;;16.30;99.90;;;;;;5059036;28;20219;-79
2022/05/20 07:15:41;;;;;;;5.33;2.00;;;16.60;99.60;;;;;;5057174;28;20259;-79
2022/05/20 07:18:08;;;;;;;5.73;1.80;;;17.00;99.50;;;;;;5054528;28;20744;-79
2022/05/20 07:20:35;;;;;;;4.73;1.80;;;17.40;98.70;;;;;;5051103;28;20239;-79
2022/05/20 07:23:02;;;;;;;5.45;1.90;;;17.70;98.20;;;;;;5064039;28;20235;-79
2022/05/20 07:25:28;;;;;;;5.15;1.70;;;17.90;97.20;;;;;;5052261;28;20691;-79
2022/05/20 07:27:59;;;;;;;7.22;2.00;;;18.00;96.60;;;;;;5058900;28;20215;-79
2022/05/20 07:30:27;;;;;;;3.58;2.05;;;18.10;97.00;;;;;;5050497;28;20863;-79
2022/05/20 07:32:53;;;;;;;6.40;1.92;;;18.30;97.60;;;;;;5057654;28;20234;-77
2022/05/20 07:35:20;;;;;;;4.00;1.58;;;18.70;96.90;;;;;;5059136;28;20228;-79
2022/05/20 07:37:49;;;;;;;3.92;1.70;;;19.10;96.40;;;;;;5054718;28;20228;-78
2022/05/20 07:40:15;;;;;;;3.40;1.80;;;19.40;94.80;;;;;;5057835;28;20364;-79
2022/05/20 07:42:42;;;;;;;3.40;1.50;;;19.50;94.30;;;;;;5060913;28;20238;-79
2022/05/20 07:45:11;;;;;;;4.70;1.38;;;19.50;93.50;;;;;;5055064;28;20225;-79
2022/05/20 07:47:37;;;;;;;3.63;1.75;;;19.40;93.80;;;;;;5055103;28;20575;-78
2022/05/20 07:50:05;;;;;;;4.00;1.55;;;19.50;93.40;;;;;;5059995;28;20219;-78
2022/05/20 07:55:21;;;;;;;4.18;1.70;;;20.00;93.70;;;;;;5052509;28;20244;-78
2022/05/20 07:57:48;;;;;;;3.40;1.52;;;20.30;93.00;;;;;;5059843;28;20234;-79
2022/05/20 08:00:17;;;;;;;3.70;1.67;;;20.50;91.70;;;;;;5054802;28;20220;-79
2022/05/20 08:02:44;;;;;;;3.80;1.40;;;20.70;91.30;;;;;;5052391;28;20543;-78
2022/05/20 08:05:10;;;;;;;4.93;1.60;;;20.80;91.30;;;;;;5048802;28;20319;-78
2022/05/20 08:07:40;;;;;;;3.17;1.52;;;20.80;91.00;;;;;;5050951;28;20301;-79
2022/05/20 08:10:11;;;;;;;4.82;1.40;;;21.00;90.90;;;;;;5060559;28;20223;-77
2022/05/20 08:12:38;;;;;;;2.67;1.33;;;21.10;90.40;;;;;;5052531;28;20800;-78
2022/05/20 08:15:06;;;;;;;2.85;1.33;;;21.40;90.90;;;;;;5064656;28;20234;-78
2022/05/20 08:17:36;;;;;;;4.65;1.52;;;21.70;90.70;;;;;;5080439;28;20245;-77
2022/05/20 08:20:07;;;;;;;3.35;1.30;;;22.00;90.00;;;;;;5071502;28;20222;-77
2022/05/20 08:22:33;;;;;;;3.25;1.52;;;22.20;89.90;;;;;;5067638;28;20219;-77
2022/05/20 08:25:00;;;;;;;4.03;1.20;;;22.40;87.60;;;;;;5053343;28;20898;-77
2022/05/20 08:27:31;;;;;;;3.25;1.52;;;22.40;86.80;;;;;;5057754;28;20342;-78
2022/05/20 08:29:58;;;;;;;2.95;1.10;;;22.30;86.00;;;;;;5052711;28;20232;-77
2022/05/20 08:32:25;;;;;;;4.38;1.33;;;22.50;86.80;;;;;;5057631;28;20934;-78
2022/05/20 08:34:54;;;;;;;2.70;1.30;;;22.80;86.70;;;;;;5053589;28;20224;-78
2022/05/20 08:37:20;;;;;;;6.32;1.75;;;23.30;84.80;;;;;;5060966;28;20228;-78
2022/05/20 08:39:47;;;;;;;5.13;1.25;;;23.90;85.70;;;;;;5080987;28;20230;-77
2022/05/20 08:42:18;;;;;;;2.78;1.35;;;24.40;82.60;;;;;;5081753;28;20246;-78
2022/05/20 08:44:45;;;;;;;3.42;1.35;;;24.80;79.60;;;;;;5080236;28;21013;-77
2022/05/20 08:47:21;;;;;;;3.55;1.70;;;25.20;78.20;;;;;;5078609;28;20218;-78
2022/05/20 08:49:48;;;;;;;3.65;1.48;;;25.50;75.30;;;;;;5076330;28;20261;-77
2022/05/20 08:52:16;;;;;;;2.38;1.35;;;25.80;75.00;;;;;;5081171;28;20220;-78
2022/05/20 08:54:43;;;;;;;2.70;1.48;;;26.10;75.00;;;;;;5082436;28;20233;-77
2022/05/20 08:57:16;;;;;;;3.60;1.70;;;26.30;75.30;;;;;;5072796;28;20245;-78
2022/05/20 08:59:42;;;;;;;4.50;1.48;;;26.50;71.20;;;;;;5081780;28;20237;-78
2022/05/20 09:02:09;;;;;;;2.17;1.35;;;26.80;71.30;;;;;;5078387;28;20265;-78
2022/05/20 09:04:36;;;;;;;2.10;1.40;;;27.00;71.40;;;;;;5070794;28;20227;-78
2022/05/20 09:07:04;;;;;;;4.70;1.52;;;27.20;70.20;;;;;;5057490;28;20608;-78
2022/05/20 09:09:44;;;;;;;2.85;1.58;;;27.40;69.70;;;;;;5082706;28;20637;-78
2022/05/20 09:12:23;;;;;;;3.40;1.50;;;27.80;68.10;;;;;;5078152;28;20567;-77
2022/05/20 09:17:46;;;;;;;3.47;1.75;;;28.20;65.70;;;;;;5082540;28;20929;-78
2022/05/20 09:20:17;;;;;;;4.63;1.50;;;28.30;66.60;;;;;;5081820;28;20231;-78
2022/05/20 09:22:55;;;;;;;2.80;1.40;;;28.30;66.40;;;;;;5077402;28;20228;-78
2022/05/20 09:25:26;;;;;;;3.80;1.40;;;28.20;63.30;;;;;;5076474;28;20215;-78
2022/05/20 09:27:57;;;;;;;7.68;1.88;;;28.20;64.10;;;;;;5082949;28;20230;-78
2022/05/20 09:30:24;;;;;;;3.40;1.58;;;28.30;64.40;;;;;;5081184;28;20313;-78
2022/05/20 09:33:01;;;;;;;5.38;1.67;;;28.40;63.80;;;;;;5083350;28;20223;-78
2022/05/20 09:35:34;;;;;;;2.80;1.40;;;28.40;61.70;;;;;;5079017;28;20640;-78
2022/05/20 09:38:10;;;;;;;3.78;1.38;;;28.40;62.00;;;;;;5067765;28;20262;-78
2022/05/20 09:40:41;;;;;;;3.80;1.98;;;28.30;60.90;;;;;;5085240;28;20236;-78
2022/05/20 09:43:10;;;;;;;4.07;1.80;;;28.20;62.10;;;;;;5077370;28;20255;-78
2022/05/20 09:45:43;;;;;;;4.47;1.75;;;28.20;62.80;;;;;;5079552;28;20253;-78
2022/05/20 09:48:11;;;;;;;3.55;1.50;;;28.10;61.50;;;;;;5076496;28;20223;-78
2022/05/20 09:50:39;;;;;;;3.20;1.55;;;28.10;60.50;;;;;;5085097;28;20657;-78
2022/05/20 09:53:14;;;;;;;4.03;1.83;;;28.20;61.00;;;;;;5080984;28;20723;-78
2022/05/20 09:55:45;;;;;;;3.33;1.40;;;28.20;59.60;;;;;;5078423;28;20222;-78
2022/05/20 09:58:16;;;;;;;4.45;1.60;;;28.30;59.40;;;;;;5078840;28;20291;-78
2022/05/20 10:00:47;;;;;;;3.20;1.30;;;28.40;59.60;;;;;;5078531;27;20302;-78
2022/05/20 10:03:29;;;;;;;4.43;1.77;;;28.60;59.60;;;;;;5067358;28;20231;-78
2022/05/20 10:06:02;;;;;;;2.33;1.40;;;28.70;58.70;;;;;;5065653;28;20904;-78
2022/05/20 10:08:37;;;;;;;6.45;1.88;;;28.90;58.50;;;;;;5063674;28;20216;-78
2022/05/20 10:11:11;;;;;;;4.20;1.55;;;29.00;57.70;;;;;;5060937;28;20290;-78
2022/05/20 10:13:46;;;;;;;2.35;1.60;;;29.20;57.60;;;;;;5068537;28;20223;-77
2022/05/20 10:16:25;;;;;;;3.90;1.63;;;29.40;58.00;;;;;;5055706;28;20215;-79
2022/05/20 10:19:00;;;;;;;3.90;1.40;;;29.50;56.60;;;;;;5057775;28;20237;-78
2022/05/20 10:21:42;;;;;;;5.50;1.98;;;29.60;56.30;;;;;;5056356;28;20274;-78
2022/05/20 10:24:18;;;;;;;2.95;1.33;;;29.50;55.70;;;;;;5085784;28;20219;-78
2022/05/20 10:26:51;;;;;;;3.78;1.60;;;29.50;55.80;;;;;;5084007;28;20227;-79
2022/05/20 10:32:37;;;;;;;4.43;1.60;;;29.40;55.50;;;;;;5080511;28;20219;-78
2022/05/20 10:35:07;;;;;;;4.45;1.60;;;29.40;56.90;;;;;;5082117;28;20591;-78
2022/05/20 10:37:49;;;;;;;4.93;1.60;;;29.50;55.20;;;;;;5081426;28;20341;-78
2022/05/20 10:40:39;;;;;;;2.58;1.38;;;29.50;54.20;;;;;;5083977;28;20665;-77
2022/05/20 10:43:26;;;;;;;6.65;1.80;;;29.50;55.20;;;;;;5077323;27;20333;-78
2022/05/20 10:49:06;;;;;;;3.10;1.60;;;29.90;55.10;;;;;;5084162;28;20211;-79
2022/05/20 10:51:49;;;;;;;4.50;1.98;;;30.00;54.20;;;;;;5066801;28;20261;-78
2022/05/20 10:54:34;;;;;;;4.43;1.40;;;30.30;54.30;;;;;;5058462;28;20227;-79
2022/05/20 10:57:17;;;;;;;4.43;1.55;;;30.50;53.50;;;;;;5044776;28;20282;-78
2022/05/20 11:00:05;;;;;;;3.22;1.45;;;30.70;52.50;;;;;;5063982;28;20219;-79
2022/05/20 11:03:24;;;;;;;3.45;1.60;;;30.70;51.90;;;;;;5058076;28;20311;-78
2022/05/20 11:06:22;;;;;;;4.50;1.70;;;30.90;52.60;;;;;;5059629;28;20222;-78
2022/05/20 11:08:59;;;;;;;5.68;1.50;;;31.00;51.20;;;;;;5057794;28;20222;-79
2022/05/20 11:11:51;;;;;;;4.32;1.65;;;30.90;50.80;;;;;;5075752;28;20313;-78
2022/05/20 11:14:34;;;;;;;4.00;1.83;;;30.80;50.50;;;;;;5074457;28;20227;-78
2022/05/20 11:17:24;;;;;;;3.22;1.40;;;30.50;49.40;;;;;;5078332;28;20299;-78
2022/05/20 11:20:03;;;;;;;4.10;1.38;;;30.30;51.10;;;;;;5073555;28;20931;-79
2022/05/20 11:23:02;;;;;;;2.70;1.65;;;30.10;50.70;;;;;;5077571;28;20235;-79
2022/05/20 11:25:59;;;;;;;3.78;1.70;;;29.80;50.90;;;;;;5081705;28;20227;-78
2022/05/20 11:28:40;;;;;;;2.95;1.63;;;29.80;51.50;;;;;;5089657;28;20226;-79
2022/05/20 11:31:19;;;;;;;5.05;1.85;;;29.70;50.40;;;;;;5076408;28;20211;-79
2022/05/20 11:33:57;;;;;;;3.50;1.55;;;29.60;49.90;;;;;;5081500;27;20276;-79
2022/05/20 11:36:52;;;;;;;4.32;1.73;;;29.50;50.50;;;;;;5083849;28;20230;-79
2022/05/20 11:40:03;;;;;;;5.20;1.70;;;29.40;49.50;;;;;;5080334;28;20250;-78
2022/05/20 11:42:48;;;;;;;4.30;1.60;;;29.30;50.00;;;;;;5084364;28;20222;-79
2022/05/20 11:45:21;;;;;;;4.65;2.08;;;29.10;50.70;;;;;;5079259;27;20223;-78
2022/05/20 11:48:25;;;;;;;3.75;1.70;;;28.80;49.00;;;;;;5066904;28;20747;-79
2022/05/20 11:51:09;;;;;;;2.78;1.50;;;28.60;50.00;;;;;;5080977;28;20593;-79
2022/05/20 11:53:43;;;;;;;3.20;1.48;;;28.30;50.70;;;;;;5069364;28;20245;-78
2022/05/20 11:56:19;;;;;;;4.47;1.88;;;28.20;51.30;;;;;;5059772;28;20261;-78
2022/05/20 11:58:53;;;;;;;2.75;1.50;;;28.20;51.70;;;;;;5056773;28;20227;-79
2022/05/20 12:01:22;;;;;;;4.75;1.98;;;28.30;51.50;;;;;;5054213;28;20229;-78
2022/05/20 12:04:08;;;;;;;3.47;1.98;;;28.40;50.90;;;;;;5056642;28;20606;-79
2022/05/20 12:06:42;;;;;;;3.25;1.42;;;28.50;51.30;;;;;;5079140;28;20227;-78
2022/05/20 12:09:30;;;;;;;3.55;2.03;;;28.60;51.30;;;;;;5083115;28;20218;-79
2022/05/20 12:12:17;;;;;;;4.78;2.00;;;28.70;50.20;;;;;;5080195;28;20958;-78
2022/05/20 12:15:40;;;;;;;2.97;1.90;;;28.70;50.20;;;;;;5080262;28;20319;-78
2022/05/20 12:24:11;;;;;;;4.80;1.80;;;28.60;49.40;;;;;;5059519;28;20312;-79
2022/05/20 12:24:23;;;;;;;5.45;2.13;;;28.20;50.00;;;;;;5058793;28;20215;-79
2022/05/20 12:26:53;;;;;;;5.30;2.20;;;27.90;50.70;;;;;;5058641;28;20363;-79
2022/05/20 12:29:46;;;;;;;4.32;2.05;;;27.70;51.20;;;;;;5059940;28;20224;-78
2022/05/20 12:32:45;;;;;;;3.90;1.92;;;27.50;50.60;;;;;;5044600;28;20235;-78
2022/05/20 12:35:16;;;;;;;4.10;1.67;;;27.30;51.60;;;;;;4999543;28;20246;-78
2022/05/20 12:38:10;;;;;;;5.38;1.83;;;27.20;51.60;;;;;;5040757;28;20216;-79
2022/05/20 12:40:56;;;;;;;4.10;2.10;;;27.10;51.50;;;;;;5044130;28;20226;-78
2022/05/20 12:43:45;;;;;;;3.83;2.10;;;27.10;51.10;;;;;;5052948;28;20306;-78
2022/05/20 12:46:18;;;;;;;5.22;2.10;;;27.10;50.70;;;;;;5053513;28;20333;-78
2022/05/20 12:48:45;;;;;;;4.05;2.13;;;27.00;52.50;;;;;;5054656;28;20226;-78
2022/05/20 12:51:12;;;;;;;4.85;2.40;;;27.00;51.20;;;;;;5049186;28;20216;-79
2022/05/20 12:53:39;;;;;;;4.50;2.33;;;26.90;51.20;;;;;;5051490;28;20227;-78
2022/05/20 12:56:24;;;;;;;5.32;2.45;;;26.80;51.70;;;;;;5059880;28;20219;-79
2022/05/20 12:58:51;;;;;;;2.97;1.92;;;26.80;51.90;;;;;;5057109;28;20471;-79
2022/05/20 13:01:19;;;;;;;4.30;2.15;;;26.80;52.60;;;;;;5053845;28;20264;-78
2022/05/20 13:03:47;;;;;;;4.10;2.28;;;26.90;52.50;;;;;;5051422;28;20219;-79
2022/05/20 13:06:17;;;;;;;4.10;2.15;;;27.00;52.80;;;;;;5052194;28;20223;-78
2022/05/20 13:08:47;;;;;;;6.10;2.20;;;27.20;52.60;;;;;;5057637;28;20226;-79
2022/05/20 13:11:18;;;;;;;3.30;2.10;;;27.20;52.30;;;;;;5051866;28;20223;-78
2022/05/20 13:13:45;;;;;;;3.10;2.15;;;27.30;52.20;;;;;;5049422;28;20689;-78
2022/05/20 13:16:15;;;;;;;5.28;1.95;;;27.40;52.20;;;;;;5061094;28;20596;-79
2022/05/20 13:18:45;;;;;;;3.90;2.17;;;27.50;52.90;;;;;;5059940;28;20226;-79
2022/05/20 13:21:17;;;;;;;2.72;1.98;;;27.60;52.40;;;;;;5062454;28;20227;-79
2022/05/20 13:23:47;;;;;;;3.33;2.28;;;27.80;51.00;;;;;;5063078;28;20225;-79
2022/05/20 13:26:22;;;;;;;5.30;2.47;;;28.00;50.80;;;;;;5082788;28;20222;-79
2022/05/20 13:28:49;;;;;;;5.30;2.15;;;28.10;49.90;;;;;;5069447;28;20307;-79
2022/05/20 13:31:22;;;;;;;3.83;2.28;;;28.20;51.00;;;;;;5062180;28;20223;-80
2022/05/20 13:33:49;;;;;;;5.20;2.50;;;28.20;52.00;;;;;;5060467;28;20305;-79
2022/05/20 13:36:19;;;;;;;6.15;3.03;;;28.20;51.90;;;;;;5073673;28;22504;-78